Time;durP1;ratioP1;P1;durP2;ratioP2;P2;SDS_P1;SDS_P2;PMS_P1;PMS_P2;Temp;Humidity;BMP_temperature;BMP_pressure;BME280_temperature;BME280_humidity;BME280_pressure;Samples;Min_cycle;Max_cycle;Signal;HPM_P1;HPM_P2
2021/06/05 00:01:03;;;;;;;18.27;6.35;;;15.50;89.80;;;;;;5133056;28;20671;-67
2021/06/05 00:03:29;;;;;;;9.38;6.30;;;15.50;90.00;;;;;;5132982;28;20180;-67
2021/06/05 00:05:58;;;;;;;9.25;6.15;;;15.40;90.20;;;;;;5132885;28;20207;-68
2021/06/05 00:08:25;;;;;;;13.75;6.72;;;15.40;90.20;;;;;;5097730;28;20179;-66
2021/06/05 00:10:57;;;;;;;13.10;6.93;;;15.30;90.40;;;;;;5133388;28;20175;-66
2021/06/05 00:13:34;;;;;;;10.52;6.47;;;15.20;90.40;;;;;;5114259;28;20171;-66
2021/06/05 00:16:01;;;;;;;14.05;6.75;;;15.20;90.70;;;;;;5114398;28;20187;-66
2021/06/05 00:18:28;;;;;;;11.68;6.32;;;15.10;90.90;;;;;;5133108;28;20171;-66
2021/06/05 00:20:55;;;;;;;8.93;6.30;;;15.10;91.10;;;;;;5131398;27;20192;-67
2021/06/05 00:23:22;;;;;;;11.95;6.85;;;15.10;91.50;;;;;;5117551;27;20191;-69
2021/06/05 00:25:48;;;;;;;10.82;6.80;;;15.00;91.50;;;;;;5136878;27;20203;-68
2021/06/05 00:28:14;;;;;;;9.90;6.20;;;15.00;92.00;;;;;;5136431;27;20176;-70
2021/06/05 00:30:41;;;;;;;8.98;5.80;;;15.00;91.90;;;;;;5136612;27;20191;-69
2021/06/05 00:33:07;;;;;;;10.38;6.90;;;14.90;92.00;;;;;;5136506;27;20207;-68
2021/06/05 00:35:33;;;;;;;12.68;6.50;;;14.90;92.20;;;;;;5119190;27;20172;-67
2021/06/05 00:38:00;;;;;;;11.75;7.15;;;14.80;92.20;;;;;;5136618;27;20176;-67
2021/06/05 00:40:28;;;;;;;13.02;6.20;;;14.80;92.10;;;;;;5136733;27;20176;-68
2021/06/05 00:42:54;;;;;;;15.65;7.47;;;14.90;92.70;;;;;;5136734;27;20616;-71
2021/06/05 00:45:21;;;;;;;14.00;7.15;;;14.80;92.80;;;;;;5136205;27;20180;-69
2021/06/05 00:47:47;;;;;;;10.10;7.05;;;14.70;92.80;;;;;;5101465;27;20211;-67
2021/06/05 00:50:13;;;;;;;10.90;6.70;;;14.70;93.20;;;;;;5136437;27;20176;-69
2021/06/05 00:52:40;;;;;;;17.23;7.25;;;14.70;93.40;;;;;;5117743;27;20180;-68
2021/06/05 00:55:07;;;;;;;11.18;7.05;;;14.70;93.60;;;;;;5100470;27;20179;-71
2021/06/05 00:57:33;;;;;;;13.13;7.47;;;14.70;93.50;;;;;;5136026;27;20179;-67
2021/06/05 00:59:59;;;;;;;13.75;6.82;;;14.60;93.70;;;;;;5135639;27;20168;-66
2021/06/05 01:02:25;;;;;;;13.63;7.18;;;14.50;93.70;;;;;;5134497;27;20175;-67
2021/06/05 01:04:52;;;;;;;17.50;7.18;;;14.50;94.10;;;;;;5135204;27;20168;-69
2021/06/05 01:07:25;;;;;;;10.32;7.07;;;14.40;94.20;;;;;;5117192;27;20227;-66
2021/06/05 01:10:00;;;;;;;13.57;7.18;;;14.40;94.30;;;;;;5135916;27;20187;-66
2021/06/05 01:12:27;;;;;;;;;;;14.30;94.40;;;;;;5118466;27;20160;-70
2021/06/05 01:15:17;;;;;;;9.27;6.50;;;14.20;94.60;;;;;;5136507;27;20078;-68
2021/06/05 01:17:48;;;;;;;14.60;7.45;;;14.10;94.90;;;;;;5101548;27;20160;-66
2021/06/05 01:20:18;;;;;;;14.13;7.22;;;14.10;95.10;;;;;;5117005;27;20183;-68
2021/06/05 01:23:05;;;;;;;13.20;6.57;;;14.10;95.30;;;;;;5118311;27;20168;-66
2021/06/05 01:25:49;;;;;;;11.55;6.85;;;14.00;95.40;;;;;;5136140;27;20175;-69
2021/06/05 01:28:21;;;;;;;13.05;8.57;;;14.00;95.50;;;;;;5134730;27;20184;-70
2021/06/05 01:30:53;;;;;;;16.83;7.78;;;14.00;95.80;;;;;;5083896;27;20183;-66
2021/06/05 01:33:20;;;;;;;13.35;7.72;;;13.90;95.80;;;;;;5098862;27;20219;-68
2021/06/05 01:35:46;;;;;;;13.52;6.88;;;13.90;96.20;;;;;;5100569;27;20179;-67
2021/06/05 01:38:13;;;;;;;12.80;7.20;;;13.80;96.20;;;;;;5116003;27;20180;-67
2021/06/05 01:40:40;;;;;;;13.95;8.40;;;13.80;96.40;;;;;;5117351;27;20278;-66
2021/06/05 01:43:06;;;;;;;12.90;7.15;;;13.80;96.60;;;;;;5117131;27;20179;-66
2021/06/05 01:45:35;;;;;;;13.25;7.55;;;13.70;96.70;;;;;;5100420;27;20187;-66
2021/06/05 01:48:01;;;;;;;13.80;7.35;;;13.70;96.90;;;;;;5099733;27;20212;-67
2021/06/05 01:50:29;;;;;;;13.77;7.72;;;13.70;97.20;;;;;;5116977;27;20176;-67
2021/06/05 01:52:58;;;;;;;11.77;7.65;;;13.60;97.30;;;;;;5115786;27;20164;-66
2021/06/05 01:55:28;;;;;;;11.60;7.03;;;13.60;97.60;;;;;;5098814;27;20191;-68
2021/06/05 01:57:55;;;;;;;16.33;6.93;;;13.60;97.90;;;;;;5099919;27;20168;-67
2021/06/05 02:00:26;;;;;;;19.17;7.78;;;13.60;98.00;;;;;;5099221;27;20643;-68
2021/06/05 02:02:54;;;;;;;14.90;7.55;;;13.60;98.30;;;;;;5134688;27;20188;-66
2021/06/05 02:05:21;;;;;;;14.75;7.88;;;13.60;98.40;;;;;;5134655;27;20643;-68
2021/06/05 02:07:47;;;;;;;27.75;7.82;;;13.50;98.20;;;;;;5134275;27;20242;-67
2021/06/05 02:10:15;;;;;;;20.83;8.18;;;13.60;98.50;;;;;;5134881;27;20180;-66
2021/06/05 02:12:41;;;;;;;15.07;8.00;;;13.50;98.50;;;;;;5115935;27;20192;-68
2021/06/05 02:15:28;;;;;;;12.98;7.80;;;13.50;98.80;;;;;;5134351;27;20510;-67
2021/06/05 02:17:54;;;;;;;12.10;7.85;;;13.40;99.20;;;;;;5131809;27;20164;-66
2021/06/05 02:20:32;;;;;;;17.08;8.05;;;13.40;99.40;;;;;;5075108;27;20176;-66
2021/06/05 02:22:59;;;;;;;12.82;8.93;;;13.40;99.80;;;;;;5115763;27;20163;-65
2021/06/05 02:25:25;;;;;;;12.88;8.02;;;13.30;99.90;;;;;;5098297;27;20191;-65
2021/06/05 02:27:57;;;;;;;11.50;7.95;;;13.30;99.90;;;;;;5099602;27;20199;-69
2021/06/05 02:30:23;;;;;;;17.67;8.20;;;13.30;99.90;;;;;;5134445;27;20168;-70
2021/06/05 02:32:49;;;;;;;14.50;8.35;;;13.30;99.90;;;;;;5116610;27;20216;-66
2021/06/05 02:35:19;;;;;;;14.52;9.10;;;13.30;99.90;;;;;;5134418;27;20179;-65
2021/06/05 02:37:45;;;;;;;12.35;8.10;;;13.20;99.90;;;;;;5115629;27;20250;-67
2021/06/05 02:40:14;;;;;;;11.82;7.50;;;13.20;99.90;;;;;;5114089;27;20180;-69
2021/06/05 02:42:40;;;;;;;13.63;8.27;;;13.20;99.90;;;;;;5115360;27;20172;-67
2021/06/05 02:45:29;;;;;;;14.00;7.85;;;13.20;99.90;;;;;;5099242;27;20172;-66
2021/06/05 02:47:58;;;;;;;12.82;7.90;;;13.20;99.90;;;;;;5119607;27;20216;-68
2021/06/05 02:50:30;;;;;;;12.98;9.63;;;13.20;99.90;;;;;;5133948;27;20168;-70
2021/06/05 02:52:56;;;;;;;11.60;7.93;;;13.20;99.90;;;;;;5097852;27;20176;-66
2021/06/05 02:55:23;;;;;;;12.10;7.65;;;13.20;99.90;;;;;;5133116;27;20180;-66
2021/06/05 02:57:49;;;;;;;14.32;8.77;;;13.10;99.90;;;;;;5134264;27;20172;-66
2021/06/05 03:00:25;;;;;;;15.48;8.15;;;13.10;99.90;;;;;;5133562;27;20198;-66
2021/06/05 03:02:51;;;;;;;12.88;8.15;;;13.20;99.90;;;;;;5134333;27;20175;-65
2021/06/05 03:05:18;;;;;;;14.75;8.02;;;13.20;99.90;;;;;;5133017;27;20664;-66
2021/06/05 03:07:44;;;;;;;13.68;9.25;;;13.20;99.90;;;;;;5133149;27;20210;-67
2021/06/05 03:10:11;;;;;;;14.30;7.95;;;13.20;99.90;;;;;;5114970;27;20184;-67
2021/06/05 03:12:38;;;;;;;11.13;7.80;;;13.20;99.90;;;;;;5132873;27;20180;-66
2021/06/05 03:15:06;;;;;;;13.48;9.48;;;13.20;99.90;;;;;;5134348;27;20176;-67
2021/06/05 03:17:32;;;;;;;15.40;7.93;;;13.20;99.90;;;;;;5134013;27;20175;-66
2021/06/05 03:20:00;;;;;;;16.40;9.68;;;13.30;99.90;;;;;;5115496;27;20187;-67
2021/06/05 03:22:26;;;;;;;13.95;9.18;;;13.30;99.90;;;;;;5114719;27;20541;-67
2021/06/05 03:24:52;;;;;;;12.82;9.85;;;13.30;99.90;;;;;;5133774;27;20172;-66
2021/06/05 03:27:19;;;;;;;12.23;9.77;;;13.40;99.90;;;;;;5132350;27;20211;-66
2021/06/05 03:29:45;;;;;;;17.88;7.72;;;13.50;99.90;;;;;;5114672;27;20168;-66
2021/06/05 03:32:12;;;;;;;15.63;9.05;;;13.50;99.90;;;;;;5133571;27;20190;-66
2021/06/05 03:34:38;;;;;;;13.07;7.88;;;13.50;99.90;;;;;;5114728;27;20207;-65
2021/06/05 03:37:06;;;;;;;12.68;8.55;;;13.50;99.90;;;;;;5133036;27;20179;-65
2021/06/05 03:39:32;;;;;;;15.15;8.10;;;13.50;99.90;;;;;;5115111;27;20167;-74
2021/06/05 03:41:58;;;;;;;16.45;8.43;;;13.50;99.90;;;;;;5133813;27;20260;-68
2021/06/05 03:44:24;;;;;;;11.65;8.38;;;13.50;99.90;;;;;;5133632;27;20187;-70
2021/06/05 03:46:50;;;;;;;13.18;8.68;;;13.50;99.90;;;;;;5132730;27;20215;-68
2021/06/05 03:49:16;;;;;;;14.60;8.63;;;13.60;99.90;;;;;;5132976;27;20203;-66
2021/06/05 03:51:42;;;;;;;15.07;8.65;;;13.70;99.90;;;;;;5133201;27;20167;-66
2021/06/05 03:54:09;;;;;;;17.10;9.38;;;13.80;99.90;;;;;;5133197;28;20183;-67
2021/06/05 03:56:35;;;;;;;13.48;8.95;;;13.80;99.90;;;;;;5136339;27;20190;-67
2021/06/05 03:59:01;;;;;;;11.27;8.45;;;13.90;99.90;;;;;;5140754;27;20178;-67
2021/06/05 04:01:28;;;;;;;13.15;8.85;;;13.90;99.90;;;;;;5140146;27;20182;-69
2021/06/05 04:03:55;;;;;;;17.58;9.15;;;14.00;99.90;;;;;;5140023;27;20186;-64
2021/06/05 04:06:21;;;;;;;11.32;8.55;;;14.00;99.90;;;;;;5139703;27;20528;-66
2021/06/05 04:08:48;;;;;;;12.48;8.57;;;14.00;99.90;;;;;;5139587;27;20241;-65
2021/06/05 04:11:14;;;;;;;12.57;8.43;;;14.00;99.90;;;;;;5138896;27;20185;-65
2021/06/05 04:13:41;;;;;;;13.43;8.40;;;14.00;99.90;;;;;;5140101;27;20186;-71
2021/06/05 04:16:07;;;;;;;15.35;7.93;;;14.10;99.90;;;;;;5139896;27;20523;-66
2021/06/05 04:18:35;;;;;;;20.02;8.70;;;14.10;99.90;;;;;;5139740;27;20172;-65
2021/06/05 04:21:01;;;;;;;11.63;8.50;;;14.20;99.90;;;;;;5139853;27;20168;-66
2021/06/05 04:23:27;;;;;;;31.90;9.68;;;14.30;99.90;;;;;;5104401;27;20167;-66
2021/06/05 04:25:54;;;;;;;13.65;9.88;;;14.30;99.90;;;;;;5120994;27;20172;-67
2021/06/05 04:28:20;;;;;;;12.32;9.25;;;14.40;99.90;;;;;;5139602;27;20207;-66
2021/06/05 04:30:46;;;;;;;14.38;9.65;;;14.40;99.90;;;;;;5139889;27;20186;-66
2021/06/05 04:33:14;;;;;;;22.60;9.60;;;14.50;99.90;;;;;;5139315;27;20215;-67
2021/06/05 04:35:41;;;;;;;14.40;9.25;;;14.50;99.90;;;;;;5120413;27;20163;-68
2021/06/05 04:38:07;;;;;;;13.82;9.65;;;14.60;99.90;;;;;;5139929;27;20624;-72
2021/06/05 04:40:34;;;;;;;15.57;9.27;;;14.60;99.90;;;;;;5139411;27;20643;-66
2021/06/05 04:43:00;;;;;;;13.20;9.02;;;14.70;99.90;;;;;;5139064;27;20184;-67
2021/06/05 04:45:26;;;;;;;19.52;9.60;;;14.80;99.90;;;;;;5139252;27;20663;-69
2021/06/05 04:47:52;;;;;;;11.43;8.68;;;14.80;99.90;;;;;;5139411;27;20208;-66
2021/06/05 04:50:20;;;;;;;13.63;9.50;;;14.90;99.90;;;;;;5138804;27;20184;-64
2021/06/05 04:52:46;;;;;;;13.90;8.88;;;15.10;99.90;;;;;;5139762;27;20172;-66
2021/06/05 04:55:13;;;;;;;12.75;8.75;;;15.20;99.90;;;;;;5138949;27;20160;-67
2021/06/05 04:57:39;;;;;;;16.23;9.38;;;15.30;99.90;;;;;;5138822;27;20658;-65
2021/06/05 05:00:10;;;;;;;15.30;8.82;;;15.40;99.90;;;;;;5138809;27;20178;-68
2021/06/05 05:02:36;;;;;;;14.38;9.00;;;15.50;99.90;;;;;;5139170;27;20187;-66
2021/06/05 05:05:04;;;;;;;14.55;9.15;;;15.60;99.70;;;;;;5139007;27;20655;-66
2021/06/05 05:07:30;;;;;;;17.40;9.30;;;15.70;99.40;;;;;;5136883;27;20207;-65
2021/06/05 05:09:56;;;;;;;13.48;8.95;;;15.80;98.90;;;;;;5135859;27;20173;-67
2021/06/05 05:12:22;;;;;;;13.95;9.30;;;15.90;98.60;;;;;;5135814;27;20176;-66
2021/06/05 05:14:48;;;;;;;18.58;9.05;;;16.00;98.10;;;;;;5135054;27;20176;-65
2021/06/05 05:17:14;;;;;;;11.00;8.15;;;16.10;97.90;;;;;;5136298;27;20176;-70
2021/06/05 05:19:40;;;;;;;12.43;8.15;;;16.30;97.20;;;;;;5117440;27;20179;-68
2021/06/05 05:22:07;;;;;;;16.02;8.88;;;16.40;96.90;;;;;;5135581;27;20188;-65
2021/06/05 05:24:33;;;;;;;13.68;8.05;;;16.50;96.70;;;;;;5116904;27;20168;-65
2021/06/05 05:26:59;;;;;;;13.23;8.73;;;16.60;95.80;;;;;;5117524;27;20203;-63
2021/06/05 05:29:25;;;;;;;13.37;8.23;;;16.70;96.10;;;;;;5135684;27;20168;-68
2021/06/05 05:31:51;;;;;;;11.80;8.13;;;16.80;95.80;;;;;;5135972;27;20187;-65
2021/06/05 05:34:18;;;;;;;12.30;7.47;;;17.00;95.70;;;;;;5135642;27;20211;-67
2021/06/05 05:36:44;;;;;;;14.05;7.05;;;17.20;94.60;;;;;;5134758;27;20175;-68
2021/06/05 05:39:12;;;;;;;10.90;6.20;;;17.40;94.20;;;;;;5135085;27;20194;-66
2021/06/05 05:41:39;;;;;;;10.68;6.10;;;17.50;93.80;;;;;;5135323;27;20186;-67
2021/06/05 05:44:05;;;;;;;8.25;5.43;;;17.60;93.90;;;;;;5117066;27;20191;-68
2021/06/05 05:46:32;;;;;;;10.57;5.68;;;17.60;92.20;;;;;;5134970;27;20556;-66
2021/06/05 05:48:58;;;;;;;11.50;5.45;;;17.60;92.10;;;;;;5134897;27;20219;-69
2021/06/05 05:51:24;;;;;;;11.82;5.40;;;17.60;91.60;;;;;;5134610;27;20557;-67
2021/06/05 05:53:51;;;;;;;13.13;5.38;;;17.80;92.00;;;;;;5134701;27;20541;-68
2021/06/05 05:56:18;;;;;;;9.18;5.22;;;17.80;91.30;;;;;;5134116;27;20203;-67
2021/06/05 05:58:46;;;;;;;12.18;5.22;;;17.90;91.60;;;;;;5133703;27;20512;-67
2021/06/05 06:01:12;;;;;;;11.70;5.90;;;17.90;91.80;;;;;;5116384;27;20184;-66
2021/06/05 06:03:38;;;;;;;7.75;5.25;;;17.90;91.70;;;;;;5116636;27;20180;-67
2021/06/05 06:06:05;;;;;;;7.65;5.35;;;18.00;90.90;;;;;;5116195;27;20186;-67
2021/06/05 06:08:31;;;;;;;8.82;5.15;;;18.10;90.30;;;;;;5098498;27;20210;-66
2021/06/05 06:10:57;;;;;;;8.63;5.50;;;18.30;90.70;;;;;;5134231;27;20186;-67
2021/06/05 06:13:23;;;;;;;10.00;4.97;;;18.30;90.70;;;;;;5134120;27;20188;-67
2021/06/05 06:15:50;;;;;;;7.80;4.90;;;18.50;90.70;;;;;;5134732;27;20172;-68
2021/06/05 06:18:16;;;;;;;6.80;4.68;;;18.50;90.40;;;;;;5134882;27;20175;-68
2021/06/05 06:20:44;;;;;;;9.48;4.97;;;18.60;89.20;;;;;;5133402;27;20198;-65
2021/06/05 06:23:12;;;;;;;10.88;4.95;;;18.70;88.50;;;;;;5135078;27;20172;-66
2021/06/05 06:25:40;;;;;;;10.05;4.43;;;18.70;89.50;;;;;;5134284;27;20187;-66
2021/06/05 06:28:22;;;;;;;13.30;4.72;;;18.70;88.20;;;;;;5133801;27;20538;-64
2021/06/05 06:30:48;;;;;;;9.70;4.88;;;18.80;88.10;;;;;;5133981;27;20156;-66
2021/06/05 06:33:14;;;;;;;8.73;4.50;;;18.70;87.90;;;;;;5133955;27;20212;-66
2021/06/05 06:35:41;;;;;;;11.20;5.45;;;18.70;87.90;;;;;;5134338;27;20174;-67
2021/06/05 06:38:11;;;;;;;8.52;4.90;;;18.70;86.80;;;;;;5134329;27;20183;-66
2021/06/05 06:40:37;;;;;;;6.30;4.13;;;18.80;85.90;;;;;;5116553;27;20169;-67
2021/06/05 06:43:04;;;;;;;9.77;4.90;;;18.90;88.60;;;;;;5134062;27;20187;-69
2021/06/05 06:45:30;;;;;;;8.30;5.10;;;19.00;88.60;;;;;;5116230;27;20163;-67
2021/06/05 06:47:57;;;;;;;10.07;4.40;;;19.20;85.10;;;;;;5134119;27;20219;-66
2021/06/05 06:50:24;;;;;;;11.35;4.60;;;19.30;85.40;;;;;;5134040;27;20194;-66
2021/06/05 06:52:50;;;;;;;8.13;4.00;;;19.50;84.90;;;;;;5133678;27;20199;-65
2021/06/05 06:55:17;;;;;;;6.72;4.30;;;19.70;82.90;;;;;;5133729;27;20632;-66
2021/06/05 06:57:43;;;;;;;8.98;4.45;;;19.90;85.40;;;;;;5133301;27;20176;-71
2021/06/05 07:00:13;;;;;;;12.88;5.35;;;20.00;83.50;;;;;;5132269;27;20192;-70
2021/06/05 07:02:39;;;;;;;8.98;4.70;;;19.90;76.90;;;;;;5134065;27;20191;-67
2021/06/05 07:05:05;;;;;;;8.95;4.40;;;19.90;80.90;;;;;;5133617;27;20167;-65
2021/06/05 07:07:32;;;;;;;6.53;4.28;;;19.80;80.00;;;;;;5132778;27;20660;-67
2021/06/05 07:09:58;;;;;;;4.93;4.22;;;19.80;76.80;;;;;;5132575;27;20540;-65
2021/06/05 07:12:24;;;;;;;9.48;4.25;;;19.90;80.20;;;;;;5133989;27;20533;-64
2021/06/05 07:14:50;;;;;;;8.65;4.65;;;20.10;79.80;;;;;;5115460;27;20529;-66
2021/06/05 07:17:17;;;;;;;11.30;5.10;;;20.00;78.20;;;;;;5133700;27;20172;-66
2021/06/05 07:19:43;;;;;;;6.68;4.43;;;19.90;78.10;;;;;;5098872;27;20168;-69
2021/06/05 07:22:09;;;;;;;7.88;4.40;;;19.90;78.60;;;;;;5134371;27;20160;-70
2021/06/05 07:24:35;;;;;;;10.15;4.50;;;19.90;79.40;;;;;;5132217;27;20190;-70
2021/06/05 07:27:01;;;;;;;5.93;4.35;;;20.00;79.50;;;;;;5114424;27;20635;-67
2021/06/05 07:29:27;;;;;;;9.38;4.45;;;20.00;79.10;;;;;;5133266;27;20188;-67
2021/06/05 07:31:54;;;;;;;8.35;4.63;;;20.00;80.10;;;;;;5148781;27;20167;-65
2021/06/05 07:34:21;;;;;;;7.28;4.22;;;20.10;80.70;;;;;;5151653;27;20572;-66
2021/06/05 07:36:49;;;;;;;5.50;4.50;;;20.40;75.70;;;;;;5133358;27;20530;-67
2021/06/05 07:39:17;;;;;;;7.53;4.40;;;20.60;77.70;;;;;;5138900;27;20206;-68
2021/06/05 07:41:44;;;;;;;10.65;4.30;;;20.80;77.30;;;;;;5154469;27;20174;-72
2021/06/05 07:44:10;;;;;;;6.95;3.90;;;21.00;78.90;;;;;;5149641;27;20179;-65
2021/06/05 07:46:47;;;;;;;7.35;4.40;;;21.20;76.50;;;;;;5132912;27;20184;-67
2021/06/05 07:49:13;;;;;;;7.32;4.20;;;21.20;74.10;;;;;;5133928;27;20195;-68
2021/06/05 07:51:39;;;;;;;5.22;4.03;;;21.40;76.20;;;;;;5132961;27;20522;-66
2021/06/05 07:54:05;;;;;;;8.63;3.78;;;21.50;72.90;;;;;;5133365;27;20187;-68
2021/06/05 07:56:31;;;;;;;9.25;3.90;;;21.60;75.70;;;;;;5114931;28;20175;-67
2021/06/05 07:58:57;;;;;;;5.97;4.10;;;21.80;72.90;;;;;;5133189;28;20530;-65
2021/06/05 08:01:25;;;;;;;10.18;3.55;;;21.90;73.50;;;;;;5132985;28;20183;-69
2021/06/05 08:03:52;;;;;;;10.05;3.90;;;22.00;69.70;;;;;;5132703;28;20184;-70
2021/06/05 08:06:18;;;;;;;7.32;4.07;;;22.20;71.40;;;;;;5116866;27;20176;-68
2021/06/05 08:08:45;;;;;;;13.77;3.92;;;22.20;69.40;;;;;;5133138;27;20207;-65
2021/06/05 08:11:12;;;;;;;9.05;3.60;;;22.40;68.90;;;;;;5115166;28;20171;-66
2021/06/05 08:13:38;;;;;;;6.60;3.50;;;22.60;67.40;;;;;;5113862;28;20187;-68
2021/06/05 08:16:04;;;;;;;7.63;3.72;;;22.70;67.50;;;;;;5132915;28;20199;-65
2021/06/05 08:18:30;;;;;;;9.73;3.80;;;22.70;65.00;;;;;;5131859;28;20183;-65
2021/06/05 08:21:00;;;;;;;9.25;5.05;;;22.80;66.50;;;;;;5113152;28;20191;-65
2021/06/05 08:23:28;;;;;;;10.93;3.42;;;23.00;66.60;;;;;;5129794;28;20168;-66
2021/06/05 08:25:54;;;;;;;5.55;3.70;;;23.30;63.30;;;;;;5130314;27;21974;-66
2021/06/05 08:28:22;;;;;;;9.95;3.92;;;23.50;61.10;;;;;;5138434;27;20570;-66
2021/06/05 08:30:49;;;;;;;7.03;3.60;;;23.70;61.50;;;;;;5129409;28;20624;-66
2021/06/05 08:33:15;;;;;;;5.07;3.40;;;23.70;61.90;;;;;;5129613;28;20556;-65
2021/06/05 08:35:41;;;;;;;12.52;3.00;;;24.00;61.90;;;;;;5111463;28;20180;-65
2021/06/05 08:38:08;;;;;;;5.93;2.97;;;24.60;60.70;;;;;;5131648;27;20194;-66
2021/06/05 08:40:45;;;;;;;5.60;3.25;;;25.00;57.10;;;;;;5132551;28;20176;-66
2021/06/05 08:43:11;;;;;;;8.32;3.33;;;25.30;60.30;;;;;;5117259;27;20172;-66
2021/06/05 08:45:38;;;;;;;9.05;3.15;;;25.50;56.00;;;;;;5117592;27;20625;-63
2021/06/05 08:48:06;;;;;;;4.82;2.70;;;25.70;56.50;;;;;;5116734;27;20208;-65
2021/06/05 08:50:32;;;;;;;6.57;3.10;;;26.60;56.60;;;;;;5116792;27;20179;-71
2021/06/05 08:53:11;;;;;;;5.07;2.83;;;27.40;55.60;;;;;;5136100;27;20695;-68
2021/06/05 08:55:54;;;;;;;6.10;2.85;;;28.00;53.90;;;;;;5135897;27;20631;-65
2021/06/05 08:58:27;;;;;;;8.60;3.10;;;28.40;51.90;;;;;;5112805;27;20163;-64
2021/06/05 09:01:05;;;;;;;6.18;3.10;;;27.80;50.70;;;;;;5135252;27;20629;-65
2021/06/05 09:03:33;;;;;;;5.32;3.20;;;27.10;51.10;;;;;;5118958;27;20172;-63
2021/06/05 09:06:30;;;;;;;3.85;2.95;;;26.90;52.00;;;;;;5101421;27;20164;-64
2021/06/05 09:08:56;;;;;;;7.45;2.90;;;26.90;51.30;;;;;;5114995;27;20616;-67
2021/06/05 09:11:22;;;;;;;5.45;2.90;;;27.40;52.10;;;;;;5135591;27;20160;-66
2021/06/05 09:13:49;;;;;;;6.20;2.90;;;28.30;52.90;;;;;;5135643;27;20535;-64
2021/06/05 09:16:25;;;;;;;10.57;3.10;;;28.80;49.10;;;;;;5109963;27;20183;-67
2021/06/05 09:19:07;;;;;;;8.10;3.20;;;28.90;48.00;;;;;;5117695;27;20164;-63
2021/06/05 09:21:35;;;;;;;9.60;2.83;;;29.20;48.50;;;;;;5135765;27;20156;-71
2021/06/05 09:24:30;;;;;;;6.28;3.28;;;29.80;50.00;;;;;;5130337;27;20206;-68
2021/06/05 09:27:18;;;;;;;8.50;3.30;;;29.30;47.20;;;;;;5135787;27;20182;-64
2021/06/05 09:29:53;;;;;;;18.67;3.65;;;29.40;48.90;;;;;;5119178;27;20199;-65
2021/06/05 09:32:30;;;;;;;3.97;2.78;;;29.10;46.90;;;;;;5135463;27;20187;-68
2021/06/05 09:35:05;;;;;;;6.30;2.50;;;28.60;46.10;;;;;;5135621;27;20639;-66
2021/06/05 09:37:40;;;;;;;4.40;3.15;;;28.10;49.60;;;;;;5135366;27;20184;-66
2021/06/05 09:40:24;;;;;;;4.80;2.85;;;28.00;49.30;;;;;;5135702;27;20160;-65
2021/06/05 09:43:07;;;;;;;11.82;3.30;;;28.20;49.40;;;;;;5129819;27;20164;-70
2021/06/05 09:45:44;;;;;;;5.82;3.00;;;27.80;48.40;;;;;;5135557;27;20164;-68
2021/06/05 09:48:15;;;;;;;10.00;2.92;;;27.70;48.50;;;;;;5134289;27;20212;-69
2021/06/05 09:50:45;;;;;;;5.45;2.70;;;26.60;48.70;;;;;;5135035;27;20179;-65
2021/06/05 09:53:25;;;;;;;5.90;2.90;;;25.90;52.30;;;;;;5135400;27;20165;-66
2021/06/05 09:55:51;;;;;;;7.55;3.05;;;25.90;50.50;;;;;;5117207;27;20168;-66
2021/06/05 09:58:32;;;;;;;6.80;3.15;;;25.70;50.70;;;;;;5135707;27;20177;-67
2021/06/05 10:01:25;;;;;;;5.75;3.60;;;25.70;55.70;;;;;;5116566;27;20172;-65
2021/06/05 10:03:53;;;;;;;11.32;3.53;;;25.60;51.70;;;;;;5117966;27;20176;-70
2021/06/05 10:06:54;;;;;;;9.65;3.30;;;25.60;53.70;;;;;;5135455;27;20168;-65
2021/06/05 10:09:26;;;;;;;11.55;3.40;;;25.70;53.80;;;;;;5127351;27;20195;-66
2021/06/05 10:12:00;;;;;;;6.75;3.17;;;25.90;52.60;;;;;;5135111;27;20170;-66
2021/06/05 10:14:44;;;;;;;5.20;3.13;;;26.30;52.50;;;;;;5116776;27;20168;-65
2021/06/05 10:17:16;;;;;;;8.20;3.10;;;26.70;52.10;;;;;;5134862;27;20171;-70
2021/06/05 10:19:45;;;;;;;8.55;3.22;;;26.80;48.00;;;;;;5091642;27;20176;-65
2021/06/05 10:22:11;;;;;;;7.43;3.28;;;26.40;51.70;;;;;;5099197;27;20184;-69
2021/06/05 10:24:57;;;;;;;4.40;3.40;;;26.00;52.20;;;;;;5099060;27;20179;-71
2021/06/05 10:27:36;;;;;;;7.07;3.60;;;26.60;51.00;;;;;;5117131;27;20167;-64
2021/06/05 10:30:20;;;;;;;6.05;3.47;;;27.20;51.40;;;;;;5116696;27;20192;-70
2021/06/05 10:32:47;;;;;;;6.43;3.15;;;27.20;51.50;;;;;;5115881;27;20168;-66
2021/06/05 10:35:31;;;;;;;5.28;3.22;;;27.50;51.50;;;;;;5116435;27;20164;-66
2021/06/05 10:38:10;;;;;;;7.88;3.22;;;28.00;48.20;;;;;;5131466;27;20199;-64
2021/06/05 10:40:36;;;;;;;6.57;3.40;;;28.10;46.70;;;;;;5133136;27;20187;-65
2021/06/05 10:43:05;;;;;;;7.18;3.47;;;27.90;45.80;;;;;;5115357;27;20176;-64
2021/06/05 10:45:34;;;;;;;5.50;3.10;;;28.20;46.20;;;;;;5114952;27;20187;-65
2021/06/05 10:48:39;;;;;;;8.38;3.50;;;28.40;49.40;;;;;;5133790;27;20196;-65
2021/06/05 10:51:08;;;;;;;6.03;2.80;;;28.50;45.40;;;;;;5097671;27;20168;-64
2021/06/05 10:53:40;;;;;;;7.50;2.90;;;28.80;45.70;;;;;;5098364;27;20190;-64
2021/06/05 10:56:16;;;;;;;5.57;2.60;;;29.20;46.10;;;;;;5116210;27;20160;-64
2021/06/05 10:58:43;;;;;;;5.05;2.95;;;29.70;45.00;;;;;;5116065;27;20514;-64
2021/06/05 11:01:12;;;;;;;11.40;3.20;;;29.30;42.30;;;;;;5115752;27;20166;-64
2021/06/05 11:03:41;;;;;;;15.13;3.10;;;29.50;43.70;;;;;;5116072;27;20178;-65
2021/06/05 11:06:22;;;;;;;8.60;2.70;;;29.90;44.10;;;;;;5132046;27;20164;-65
2021/06/05 11:08:50;;;;;;;6.32;2.92;;;29.60;41.70;;;;;;5098278;27;20196;-65
2021/06/05 11:11:59;;;;;;;12.73;2.75;;;29.10;41.00;;;;;;5114606;27;20167;-64
2021/06/05 11:14:37;;;;;;;4.95;2.72;;;28.90;43.70;;;;;;5112706;27;20184;-66
2021/06/05 11:17:27;;;;;;;7.97;2.95;;;28.70;44.30;;;;;;5133545;27;20183;-64
2021/06/05 11:20:08;;;;;;;5.60;2.90;;;28.60;44.30;;;;;;5133136;27;20183;-64
2021/06/05 11:22:52;;;;;;;4.90;2.50;;;28.20;44.70;;;;;;5115296;27;20167;-65
2021/06/05 11:25:24;;;;;;;4.30;2.85;;;28.10;46.70;;;;;;5133669;27;20176;-65
2021/06/05 11:27:54;;;;;;;4.72;2.72;;;28.20;47.40;;;;;;5132184;27;20175;-64
2021/06/05 11:30:20;;;;;;;4.22;2.50;;;28.50;46.90;;;;;;5115802;27;20179;-64
2021/06/05 11:32:59;;;;;;;4.35;2.75;;;28.60;46.90;;;;;;5126675;27;20180;-64
2021/06/05 11:35:48;;;;;;;8.07;2.50;;;28.40;47.60;;;;;;5135134;27;20179;-64
2021/06/05 11:38:17;;;;;;;7.25;2.78;;;27.80;46.60;;;;;;5128052;27;20179;-65
2021/06/05 11:41:04;;;;;;;4.63;2.42;;;27.60;45.90;;;;;;5132979;27;20498;-65
2021/06/05 11:43:30;;;;;;;4.53;2.42;;;27.30;45.70;;;;;;5133603;27;20170;-64
2021/06/05 11:46:04;;;;;;;4.90;2.33;;;27.00;46.00;;;;;;5129536;27;20172;-64
2021/06/05 11:48:50;;;;;;;9.85;2.70;;;26.70;46.30;;;;;;5133018;27;20206;-64
2021/06/05 11:51:16;;;;;;;8.05;2.60;;;26.60;46.90;;;;;;5131772;27;20156;-62
2021/06/05 11:53:42;;;;;;;4.55;2.70;;;26.50;46.80;;;;;;5133073;27;20171;-64
2021/06/05 11:56:08;;;;;;;5.55;2.90;;;26.30;46.60;;;;;;5096841;28;20190;-63
2021/06/05 11:58:36;;;;;;;9.65;2.75;;;26.10;47.40;;;;;;5132651;28;20171;-65
2021/06/05 12:01:34;;;;;;;5.32;2.53;;;25.70;47.30;;;;;;5132708;28;20178;-65
2021/06/05 12:04:11;;;;;;;4.82;2.80;;;25.50;47.90;;;;;;5060053;28;20188;-63
2021/06/05 12:06:43;;;;;;;6.20;2.65;;;25.60;48.50;;;;;;5091529;28;20164;-64
2021/06/05 12:09:21;;;;;;;14.18;3.03;;;25.60;49.30;;;;;;5114685;28;20212;-65
2021/06/05 12:12:00;;;;;;;6.50;2.58;;;25.50;47.10;;;;;;5132951;28;20163;-64
2021/06/05 12:14:56;;;;;;;7.40;3.10;;;25.50;47.40;;;;;;5114627;28;20188;-64
2021/06/05 12:17:34;;;;;;;5.32;3.03;;;25.30;47.50;;;;;;5116429;27;20178;-64
2021/06/05 12:20:35;;;;;;;5.47;2.97;;;25.20;49.10;;;;;;5140736;27;20639;-63
2021/06/05 12:23:14;;;;;;;9.88;3.17;;;25.20;51.00;;;;;;5122172;27;20175;-65
2021/06/05 12:25:42;;;;;;;4.85;2.67;;;25.30;50.20;;;;;;5117461;27;20540;-64
2021/06/05 12:28:17;;;;;;;4.90;3.17;;;25.30;48.80;;;;;;5136213;27;20179;-65
2021/06/05 12:30:46;;;;;;;4.07;3.15;;;25.10;49.50;;;;;;5135872;27;20636;-64
2021/06/05 12:33:23;;;;;;;4.30;3.08;;;24.90;50.20;;;;;;5136785;27;20694;-65
2021/06/05 12:35:49;;;;;;;12.65;3.35;;;24.90;51.10;;;;;;5116110;27;20659;-63
2021/06/05 12:38:51;;;;;;;8.45;3.85;;;24.90;52.70;;;;;;5134930;27;20191;-67
2021/06/05 12:41:26;;;;;;;4.75;3.10;;;24.90;54.40;;;;;;5070096;28;20653;-64
2021/06/05 12:43:52;;;;;;;5.80;3.00;;;24.80;51.50;;;;;;5087714;27;20195;-63
2021/06/05 12:46:32;;;;;;;16.80;4.25;;;24.80;53.70;;;;;;5136516;27;20176;-63
2021/06/05 12:49:00;;;;;;;12.45;3.30;;;24.70;53.80;;;;;;5118912;27;20188;-64
2021/06/05 12:51:30;;;;;;;11.05;3.50;;;24.60;53.40;;;;;;5109846;27;20191;-63
2021/06/05 12:53:58;;;;;;;3.92;3.20;;;24.80;52.10;;;;;;5100924;27;20175;-64
2021/06/05 12:56:30;;;;;;;7.40;3.55;;;24.80;53.80;;;;;;5135371;27;20176;-63